createdAt,value
2018-04-24T00:00:26.723Z,0
2018-04-24T00:01:07.118Z,0
2018-04-24T00:01:47.795Z,0
2018-04-24T00:02:27.934Z,0
2018-04-24T00:03:08.266Z,0
2018-04-24T00:03:48.630Z,0
2018-04-24T00:04:29.047Z,0
2018-04-24T00:05:10.835Z,0
2018-04-24T00:05:51.275Z,0
2018-04-24T00:06:31.742Z,0
2018-04-24T00:07:12.279Z,0
2018-04-24T00:07:53.740Z,0
2018-04-24T00:08:34.017Z,0
2018-04-24T00:09:14.450Z,0
2018-04-24T00:09:55.326Z,0
2018-04-24T00:10:35.624Z,0
2018-04-24T00:11:16.049Z,0
2018-04-24T00:11:56.428Z,0
2018-04-24T00:12:36.841Z,0
2018-04-24T00:13:17.262Z,0
2018-04-24T00:13:57.668Z,0
2018-04-24T00:14:38.062Z,0
2018-04-24T00:15:18.470Z,0
2018-04-24T00:15:58.878Z,0
2018-04-24T00:18:39.568Z,0
2018-04-24T00:19:19.947Z,0
2018-04-24T00:20:00.436Z,0
2018-04-24T00:20:40.861Z,0
2018-04-24T00:21:21.412Z,0
2018-04-24T00:22:01.829Z,0
2018-04-24T00:22:42.260Z,0
2018-04-24T00:23:22.807Z,0
2018-04-24T00:24:03.043Z,0
2018-04-24T00:24:43.437Z,0
2018-04-24T00:25:23.850Z,0
2018-04-24T00:26:04.410Z,0
2018-04-24T00:26:45.542Z,0
2018-04-24T00:27:26.687Z,0
2018-04-24T00:28:06.905Z,0
2018-04-24T00:28:47.233Z,0
2018-04-24T00:29:27.652Z,0
2018-04-24T00:30:08.076Z,0
2018-04-24T00:30:48.484Z,0
2018-04-24T00:31:28.924Z,0
2018-04-24T00:32:09.297Z,0
2018-04-24T00:32:50.778Z,0
2018-04-24T00:33:31.140Z,0
2018-04-24T00:34:11.555Z,0
2018-04-24T00:34:51.954Z,0
2018-04-24T00:35:32.384Z,0
2018-04-24T00:36:12.803Z,0
2018-04-24T00:36:53.297Z,0
2018-04-24T00:37:33.618Z,0
2018-04-24T00:38:14.051Z,0
2018-04-24T00:38:55.096Z,0
2018-04-24T00:39:35.549Z,0
2018-04-24T00:40:15.919Z,0
2018-04-24T00:40:56.508Z,0
2018-04-24T00:41:36.959Z,0
2018-04-24T00:42:17.552Z,0
2018-04-24T00:42:58.403Z,0
2018-04-24T00:43:38.784Z,0
2018-04-24T00:44:19.195Z,0
2018-04-24T00:44:59.581Z,0
2018-04-24T00:45:40.289Z,0
2018-04-24T00:46:20.751Z,0
2018-04-24T00:47:01.102Z,0
2018-04-24T00:47:41.552Z,0
2018-04-24T00:48:22.141Z,0
2018-04-24T00:49:02.591Z,0
2018-04-24T00:49:43.150Z,0
2018-04-24T00:50:23.986Z,0
2018-04-24T00:51:04.410Z,0
2018-04-24T00:51:45.057Z,0
2018-04-24T00:52:25.279Z,0
2018-04-24T00:53:05.865Z,0
2018-04-24T00:53:47.034Z,0
2018-04-24T00:54:27.599Z,0
2018-04-24T00:55:07.872Z,0
2018-04-24T00:55:48.627Z,0
2018-04-24T00:56:29.057Z,0
2018-04-24T00:57:09.455Z,0
2018-04-24T00:57:49.941Z,0
2018-04-24T00:58:30.283Z,0
2018-04-24T00:59:10.705Z,0
2018-04-24T00:59:51.303Z,0
2018-04-24T01:00:31.573Z,0
2018-04-24T01:01:11.990Z,0
2018-04-24T01:01:52.342Z,0
2018-04-24T01:02:32.831Z,0
2018-04-24T01:03:13.439Z,0
2018-04-24T01:03:53.703Z,0
2018-04-24T01:04:34.125Z,0
2018-04-24T01:05:14.558Z,0
2018-04-24T01:05:54.978Z,0
2018-04-24T01:06:35.454Z,0
2018-04-24T01:07:15.918Z,0
2018-04-24T01:07:56.319Z,0
2018-04-24T01:08:36.756Z,0
2018-04-24T01:09:17.106Z,0
2018-04-24T01:09:57.597Z,0
2018-04-24T01:10:38.068Z,0
2018-04-24T01:11:18.527Z,0
2018-04-24T01:11:58.795Z,0
2018-04-24T01:12:39.192Z,0
2018-04-24T01:13:19.605Z,0
2018-04-24T01:14:00.038Z,0
2018-04-24T01:14:40.432Z,0
2018-04-24T01:15:20.877Z,0
2018-04-24T01:16:01.367Z,0
2018-04-24T01:16:41.795Z,0
2018-04-24T01:17:22.195Z,0
2018-04-24T01:18:02.635Z,0
2018-04-24T01:18:42.967Z,0
2018-04-24T01:19:23.421Z,0
2018-04-24T01:20:03.891Z,0
2018-04-24T01:20:44.293Z,0
2018-04-24T01:21:24.621Z,0
2018-04-24T01:22:05.129Z,0
2018-04-24T01:22:45.363Z,0
2018-04-24T01:23:25.787Z,0
2018-04-24T01:24:06.208Z,0
2018-04-24T01:24:46.636Z,0
2018-04-24T01:25:27.053Z,0
2018-04-24T01:26:08.345Z,0
2018-04-24T01:26:50.743Z,0
2018-04-24T01:27:31.173Z,0
2018-04-24T01:28:11.937Z,0
2018-04-24T01:28:52.388Z,0
2018-04-24T01:29:33.763Z,0
2018-04-24T01:30:14.350Z,0
2018-04-24T01:30:54.730Z,0
2018-04-24T01:31:36.788Z,0
2018-04-24T01:32:17.039Z,0
2018-04-24T01:32:57.417Z,0
2018-04-24T01:33:37.874Z,0
2018-04-24T01:34:18.354Z,0
2018-04-24T01:36:53.021Z,0
2018-04-24T01:37:33.448Z,0
2018-04-24T01:38:13.903Z,0
2018-04-24T01:38:54.518Z,0
2018-04-24T01:39:34.910Z,0
2018-04-24T01:40:15.332Z,0
2018-04-24T01:40:55.755Z,0
2018-04-24T01:41:36.134Z,0
2018-04-24T01:42:16.568Z,0
2018-04-24T01:42:57.007Z,0
2018-04-24T01:43:37.403Z,0
2018-04-24T01:44:17.838Z,0
2018-04-24T01:44:58.275Z,0
2018-04-24T01:45:38.664Z,0
2018-04-24T01:46:19.095Z,0
2018-04-24T01:47:02.206Z,0
2018-04-24T01:47:40.779Z,0
2018-04-24T01:48:21.296Z,0
2018-04-24T01:49:01.652Z,0
2018-04-24T01:49:42.094Z,0
2018-04-24T01:50:24.335Z,0
2018-04-24T01:58:17.607Z,0
2018-04-24T01:58:57.376Z,0
2018-04-24T01:59:37.906Z,0
2018-04-24T02:00:18.201Z,0
2018-04-24T02:00:58.659Z,0
2018-04-24T02:01:39.062Z,0
2018-04-24T02:02:19.371Z,0
2018-04-24T02:03:01.021Z,0
2018-04-24T02:03:41.039Z,0
2018-04-24T02:04:21.389Z,0
2018-04-24T02:05:01.860Z,0
2018-04-24T02:05:42.248Z,0
2018-04-24T02:06:22.636Z,0
2018-04-24T02:07:03.044Z,0
2018-04-24T02:07:43.788Z,0
2018-04-24T02:08:24.750Z,0
2018-04-24T02:09:05.278Z,0
2018-04-24T02:09:45.586Z,0
2018-04-24T02:10:25.927Z,0
2018-04-24T02:11:06.558Z,0
2018-04-24T02:11:46.929Z,0
2018-04-24T02:12:27.234Z,0
2018-04-24T02:13:07.641Z,0
2018-04-24T02:13:48.055Z,0
2018-04-24T02:14:28.522Z,0
2018-04-24T02:15:08.848Z,0
2018-04-24T02:15:49.303Z,0
2018-04-24T02:16:29.760Z,0
2018-04-24T02:17:10.089Z,0
2018-04-24T02:20:02.735Z,0
2018-04-24T02:24:03.766Z,0
2018-04-24T02:26:39.209Z,0
2018-04-24T02:27:19.742Z,0
2018-04-24T02:27:59.987Z,0
2018-04-24T02:28:40.450Z,0
2018-04-24T02:29:20.781Z,0
2018-04-24T02:30:01.660Z,0
2018-04-24T02:30:42.094Z,0
2018-04-24T02:31:22.513Z,0
2018-04-24T02:32:03.556Z,0
2018-04-24T02:32:43.913Z,0
2018-04-24T02:33:24.745Z,0
2018-04-24T02:34:05.146Z,0
2018-04-24T02:34:45.563Z,0
2018-04-24T02:35:26.215Z,0
2018-04-24T02:36:06.438Z,0
2018-04-24T02:36:46.836Z,0
2018-04-24T02:37:27.409Z,0
2018-04-24T02:38:07.793Z,0
2018-04-24T02:38:48.211Z,0
2018-04-24T02:39:28.751Z,0
2018-04-24T02:40:09.165Z,0
2018-04-24T02:40:49.589Z,0
2018-04-24T02:41:31.401Z,0
2018-04-24T02:42:11.796Z,0
2018-04-24T02:42:52.343Z,0
2018-04-24T02:43:32.689Z,0
2018-04-24T02:44:13.171Z,0
2018-04-24T02:44:53.584Z,0
2018-04-24T02:45:34.030Z,0
2018-04-24T02:46:14.453Z,0
2018-04-24T02:46:54.837Z,0
2018-04-24T02:47:35.185Z,0
2018-04-24T02:48:15.596Z,0
2018-04-24T02:48:56.116Z,0
2018-04-24T02:49:36.462Z,0
2018-04-24T02:50:17.063Z,0
2018-04-24T02:50:57.249Z,0
2018-04-24T02:51:37.676Z,0
2018-04-24T02:52:18.093Z,0
2018-04-24T02:52:58.550Z,0
2018-04-24T02:53:38.985Z,0
2018-04-24T02:54:19.458Z,0
2018-04-24T02:54:59.909Z,0
2018-04-24T02:55:40.195Z,0
2018-04-24T02:56:20.590Z,0
2018-04-24T02:57:00.965Z,0
2018-04-24T02:57:41.371Z,0
2018-04-24T02:58:21.799Z,0
2018-04-24T02:59:02.163Z,0
2018-04-24T02:59:42.543Z,0
2018-04-24T03:00:22.967Z,0
2018-04-24T03:01:03.416Z,0
2018-04-24T03:01:44.644Z,0
2018-04-24T03:02:24.848Z,0
2018-04-24T03:03:05.866Z,0
2018-04-24T03:05:19.470Z,0
2018-04-24T03:05:59.982Z,0
2018-04-24T03:06:41.037Z,0
2018-04-24T03:07:21.139Z,0
2018-04-24T03:08:01.422Z,0
2018-04-24T03:08:41.880Z,0
2018-04-24T03:09:23.017Z,0
2018-04-24T03:10:03.195Z,0
2018-04-24T03:10:43.614Z,0
2018-04-24T03:11:24.011Z,0
2018-04-24T03:12:04.524Z,0
2018-04-24T03:12:44.934Z,0
2018-04-24T03:13:25.419Z,0
2018-04-24T03:14:05.825Z,0
2018-04-24T03:14:46.478Z,0
2018-04-24T03:15:26.812Z,0
2018-04-24T03:16:07.205Z,0
2018-04-24T03:16:47.852Z,0
2018-04-24T03:17:28.102Z,0
2018-04-24T03:18:08.568Z,0
2018-04-24T03:18:49.101Z,0
2018-04-24T03:19:29.504Z,0
2018-04-24T03:20:10.042Z,0
2018-04-24T03:20:50.824Z,0
2018-04-24T03:21:31.238Z,0
2018-04-24T03:22:11.694Z,0
2018-04-24T03:22:52.090Z,0
2018-04-24T03:23:32.804Z,0
2018-04-24T03:24:13.214Z,0
2018-04-24T03:24:53.630Z,0
2018-04-24T03:25:34.206Z,0
2018-04-24T03:26:14.501Z,0
2018-04-24T03:26:55.225Z,0
2018-04-24T03:27:36.028Z,0
2018-04-24T03:28:16.596Z,0
2018-04-24T03:28:56.941Z,0
2018-04-24T03:29:37.849Z,0
2018-04-24T03:30:18.123Z,0
2018-04-24T03:30:59.021Z,0
2018-04-24T03:31:39.029Z,0
2018-04-24T03:32:19.487Z,0
2018-04-24T03:32:59.891Z,0
2018-04-24T03:33:40.391Z,0
2018-04-24T03:34:20.736Z,0
2018-04-24T03:35:01.190Z,0
2018-04-24T03:35:41.592Z,0
2018-04-24T03:36:21.965Z,0
2018-04-24T03:37:02.680Z,0
2018-04-24T03:37:43.351Z,0
2018-04-24T03:38:24.305Z,0
2018-04-24T03:39:04.720Z,0
2018-04-24T03:39:45.326Z,0
2018-04-24T03:40:26.121Z,0
2018-04-24T03:41:06.432Z,0
2018-04-24T03:41:46.786Z,0
2018-04-24T03:42:27.362Z,0
2018-04-24T03:43:07.795Z,0
2018-04-24T03:43:48.243Z,0
2018-04-24T03:44:28.643Z,0
2018-04-24T03:45:09.046Z,0
2018-04-24T03:45:49.554Z,0
2018-04-24T03:46:29.928Z,0
2018-04-24T03:47:10.303Z,0
2018-04-24T03:47:50.852Z,0
2018-04-24T03:48:31.135Z,0
2018-04-24T03:49:11.678Z,0
2018-04-24T03:49:51.960Z,0
2018-04-24T03:50:32.481Z,0
2018-04-24T03:51:12.939Z,0
2018-04-24T03:51:53.619Z,0
2018-04-24T03:52:34.053Z,0
2018-04-24T03:53:14.982Z,0
2018-04-24T03:53:55.573Z,0
2018-04-24T03:54:35.943Z,0
2018-04-24T03:55:16.449Z,0
2018-04-24T03:55:56.889Z,0
2018-04-24T03:56:37.395Z,0
2018-04-24T03:57:17.804Z,0
2018-04-24T03:57:58.252Z,0
2018-04-24T03:58:38.593Z,0
2018-04-24T03:59:19.112Z,0
2018-04-24T03:59:59.544Z,0
2018-04-24T04:00:40.085Z,0
2018-04-24T04:01:20.844Z,0
2018-04-24T04:02:01.364Z,0
2018-04-24T04:42:02.994Z,10
2018-04-24T04:42:50.629Z,10
2018-04-24T04:43:31.079Z,10
2018-04-24T04:44:11.502Z,10
2018-04-24T04:44:51.909Z,10
2018-04-24T04:45:32.356Z,10
2018-04-24T04:46:12.893Z,10
2018-04-24T04:46:53.430Z,10
2018-04-24T04:47:33.732Z,10
2018-04-24T04:48:14.707Z,10
2018-04-24T04:48:54.568Z,10
2018-04-24T04:49:35.219Z,10
2018-04-24T04:50:15.724Z,10
2018-04-24T04:50:56.006Z,15
2018-04-24T04:51:38.493Z,15
2018-04-24T04:52:18.899Z,15
2018-04-24T04:52:59.591Z,15
2018-04-24T04:53:39.956Z,15
2018-04-24T04:54:20.395Z,15
2018-04-24T04:55:00.852Z,10
2018-04-24T04:55:41.263Z,10
2018-04-24T04:56:21.606Z,10
2018-04-24T04:57:02.050Z,10
2018-04-24T04:57:42.575Z,10
2018-04-24T04:58:23.033Z,10
2018-04-24T04:59:03.749Z,10
2018-04-24T04:59:44.039Z,10
2018-04-24T05:00:24.517Z,10
2018-04-24T05:01:04.829Z,15
2018-04-24T05:01:45.437Z,15
2018-04-24T05:02:25.966Z,15
2018-04-24T05:03:06.296Z,15
2018-04-24T05:03:46.686Z,15
2018-04-24T05:04:27.672Z,15
2018-04-24T05:05:08.205Z,15
2018-04-24T05:05:49.656Z,15
2018-04-24T05:06:29.972Z,15
2018-04-24T05:07:10.337Z,15
2018-04-24T05:07:50.777Z,20
2018-04-24T05:08:31.212Z,20
2018-04-24T05:09:11.717Z,20
2018-04-24T05:09:52.530Z,20
2018-04-24T05:10:33.423Z,20
2018-04-24T05:11:13.985Z,20
2018-04-24T05:11:54.316Z,20
2018-04-24T05:12:34.913Z,20
2018-04-24T05:13:15.960Z,20
2018-04-24T05:13:56.377Z,20
2018-04-24T05:14:36.949Z,20
2018-04-24T05:15:18.518Z,25
2018-04-24T05:15:58.656Z,25
2018-04-24T05:16:38.995Z,25
2018-04-24T05:17:19.931Z,25
2018-04-24T05:18:00.201Z,25
2018-04-24T05:18:40.711Z,25
2018-04-24T05:19:21.380Z,25
2018-04-24T05:20:01.838Z,25
2018-04-24T05:20:42.711Z,30
2018-04-24T05:21:23.103Z,30
2018-04-24T05:22:03.583Z,30
2018-04-24T05:22:43.902Z,30
2018-04-24T05:23:24.351Z,30
2018-04-24T05:24:04.997Z,30
2018-04-24T05:24:45.569Z,30
2018-04-24T05:25:27.477Z,30
2018-04-24T05:26:06.603Z,30
2018-04-24T05:26:47.007Z,30
2018-04-24T05:27:28.022Z,35
2018-04-24T05:28:08.497Z,35
2018-04-24T05:28:48.854Z,35
2018-04-24T05:29:29.333Z,35
2018-04-24T05:30:09.710Z,35
2018-04-24T05:30:50.345Z,40
2018-04-24T05:31:31.669Z,40
2018-04-24T05:32:11.509Z,40
2018-04-24T05:32:51.867Z,50
2018-04-24T05:33:32.728Z,55
2018-04-24T05:34:13.036Z,60
2018-04-24T05:34:53.447Z,65
2018-04-24T05:35:33.926Z,55
2018-04-24T05:36:14.293Z,55
2018-04-24T05:36:54.944Z,55
2018-04-24T05:37:35.677Z,55
2018-04-24T05:38:16.532Z,55
2018-04-24T05:38:56.818Z,60
2018-04-24T05:39:37.178Z,65
2018-04-24T05:40:17.513Z,70
2018-04-24T05:40:57.963Z,75
2018-04-24T05:41:38.365Z,80
2018-04-24T05:42:18.790Z,80
2018-04-24T05:42:59.197Z,80
2018-04-24T05:43:39.567Z,80
2018-04-24T05:44:20.789Z,85
2018-04-24T05:45:00.894Z,105
2018-04-24T05:45:41.281Z,100
2018-04-24T05:46:22.640Z,100
2018-04-24T05:47:02.798Z,90
2018-04-24T05:47:43.812Z,75
2018-04-24T05:48:24.523Z,70
2018-04-24T05:49:04.973Z,75
2018-04-24T05:49:45.410Z,75
2018-04-24T05:50:25.868Z,75
2018-04-24T05:51:06.559Z,95
2018-04-24T05:51:47.050Z,110
2018-04-24T05:52:27.749Z,130
2018-04-24T05:53:09.364Z,140
2018-04-24T05:53:48.692Z,160
2018-04-24T05:54:29.489Z,150
2018-04-24T05:55:09.775Z,145
2018-04-24T05:55:50.290Z,140
2018-04-24T05:56:30.635Z,160
2018-04-24T05:57:11.888Z,160
2018-04-24T05:57:52.420Z,175
2018-04-24T05:58:33.668Z,195
2018-04-24T05:59:14.679Z,175
2018-04-24T05:59:55.076Z,170
2018-04-24T06:00:35.490Z,210
2018-04-24T06:01:16.122Z,270
2018-04-24T06:01:57.287Z,325
2018-04-24T06:02:38.732Z,315
2018-04-24T06:03:19.189Z,320
2018-04-24T06:03:59.451Z,345
2018-04-24T06:04:39.920Z,330
2018-04-24T06:05:20.397Z,340
2018-04-24T06:06:00.957Z,385
2018-04-24T06:06:41.276Z,445
2018-04-24T06:07:21.798Z,430
2018-04-24T06:08:02.140Z,380
2018-04-24T06:08:42.813Z,305
2018-04-24T06:09:23.280Z,255
2018-04-24T06:10:03.656Z,245
2018-04-24T06:10:44.140Z,175
2018-04-24T06:11:24.760Z,170
2018-04-24T06:12:05.404Z,115
2018-04-24T06:12:46.243Z,110
2018-04-24T06:13:26.596Z,105
2018-04-24T06:14:07.449Z,105
2018-04-24T06:14:48.391Z,105
2018-04-24T06:15:29.565Z,100
2018-04-24T06:16:10.242Z,120
2018-04-24T06:16:51.395Z,130
2018-04-24T06:17:32.209Z,130
2018-04-24T06:18:12.645Z,145
2018-04-24T06:18:53.619Z,170
2018-04-24T06:19:34.168Z,185
2018-04-24T06:20:14.784Z,180
2018-04-24T06:20:55.145Z,185
2018-04-24T06:21:35.818Z,205
2018-04-24T06:22:16.521Z,190
2018-04-24T06:22:56.898Z,195
2018-04-24T06:23:37.464Z,200
2018-04-24T06:24:18.198Z,235
2018-04-24T06:24:58.632Z,255
2018-04-24T06:25:39.019Z,270
2018-04-24T06:26:19.763Z,275
2018-04-24T06:27:00.300Z,290
2018-04-24T06:27:41.200Z,300
2018-04-24T06:28:21.407Z,300
2018-04-24T06:29:02.005Z,315
2018-04-24T06:29:42.463Z,325
2018-04-24T06:30:22.897Z,325
2018-04-24T06:31:03.395Z,340
2018-04-24T06:31:44.034Z,305
2018-04-24T06:32:24.662Z,265
2018-04-24T06:33:05.559Z,380
2018-04-24T06:33:46.716Z,435
2018-04-24T06:34:27.237Z,405
2018-04-24T06:35:08.138Z,385
2018-04-24T06:35:49.607Z,375
2018-04-24T06:36:30.672Z,335
2018-04-24T06:37:11.321Z,350
2018-04-24T06:37:51.773Z,450
2018-04-24T06:38:32.574Z,500
2018-04-24T06:39:13.686Z,360
2018-04-24T06:39:54.117Z,325
2018-04-24T06:40:35.118Z,340
2018-04-24T06:41:16.085Z,325
2018-04-24T06:41:56.388Z,390
2018-04-24T06:42:36.800Z,365
2018-04-24T06:43:17.512Z,410
2018-04-24T06:43:59.489Z,320
2018-04-24T06:44:38.652Z,260
2018-04-24T06:45:19.226Z,290
2018-04-24T06:46:00.415Z,245
2018-04-24T06:46:41.845Z,265
2018-04-24T06:47:23.373Z,215
2018-04-24T06:48:03.912Z,170
2018-04-24T06:48:44.984Z,155
2018-04-24T06:49:28.317Z,130
2018-04-24T06:50:08.566Z,125
2018-04-24T06:50:49.130Z,135
2018-04-24T06:51:29.641Z,115
2018-04-24T06:52:10.573Z,100
2018-04-24T06:52:51.085Z,90
2018-04-24T06:53:32.020Z,80
2018-04-24T06:54:13.679Z,75
2018-04-24T06:54:53.725Z,75
2018-04-24T06:55:35.445Z,70
2018-04-24T06:56:16.203Z,70
2018-04-24T06:56:56.465Z,70
2018-04-24T06:57:37.543Z,65
2018-04-24T06:58:17.923Z,65
2018-04-24T06:58:58.613Z,65
2018-04-24T06:59:39.003Z,65
2018-04-24T07:00:19.849Z,60
2018-04-24T07:01:00.208Z,60
2018-04-24T07:01:40.804Z,55
2018-04-24T07:02:20.995Z,55
2018-04-24T07:03:02.633Z,55
2018-04-24T07:03:43.405Z,55
2018-04-24T07:04:23.774Z,55
2018-04-24T07:05:04.644Z,55
2018-04-24T07:05:45.906Z,55
2018-04-24T07:06:27.051Z,55
2018-04-24T07:07:08.151Z,60
2018-04-24T07:07:48.504Z,60
2018-04-24T07:08:30.531Z,60
2018-04-24T07:09:11.068Z,65
2018-04-24T07:09:51.695Z,65
2018-04-24T07:10:32.074Z,70
2018-04-24T07:11:12.649Z,75
2018-04-24T07:11:54.333Z,75
2018-04-24T07:12:35.096Z,80
2018-04-24T07:13:22.455Z,80
2018-04-24T07:13:57.886Z,90
2018-04-24T07:14:39.010Z,100
2018-04-24T07:15:20.583Z,105
2018-04-24T07:16:00.993Z,105
2018-04-24T07:16:41.784Z,115
2018-04-24T07:17:22.565Z,120
2018-04-24T07:18:03.258Z,130
2018-04-24T07:18:44.873Z,145
2018-04-24T07:19:26.558Z,175
2018-04-24T07:20:06.174Z,200
2018-04-24T07:20:46.478Z,180
2018-04-24T07:21:29.048Z,260
2018-04-24T07:22:09.439Z,285
2018-04-24T07:22:52.290Z,295
2018-04-24T07:23:32.864Z,230
2018-04-24T07:24:13.327Z,230
2018-04-24T07:24:54.130Z,215
2018-04-24T07:25:37.137Z,225
2018-04-24T07:26:18.075Z,220
2018-04-24T07:26:59.001Z,185
2018-04-24T07:27:38.986Z,185
2018-04-24T07:28:19.762Z,165
2018-04-24T07:29:00.152Z,170
2018-04-24T07:29:40.725Z,195
2018-04-24T07:30:21.660Z,205
2018-04-24T07:31:01.835Z,175
2018-04-24T07:31:43.159Z,170
2018-04-24T07:32:23.954Z,160
2018-04-24T07:33:04.284Z,170
2018-04-24T07:33:44.566Z,145
2018-04-24T07:34:25.638Z,140
2018-04-24T07:35:06.683Z,135
2018-04-24T07:35:47.544Z,155
2018-04-24T07:36:28.302Z,135
2018-04-24T07:38:46.801Z,115
2018-04-24T07:39:27.225Z,110
2018-04-24T07:40:08.478Z,105
2018-04-24T07:40:51.698Z,105
2018-04-24T07:41:33.446Z,100
2018-04-24T07:42:14.074Z,95
2018-04-24T07:42:54.790Z,85
2018-04-24T07:45:44.597Z,70
2018-04-24T07:46:26.697Z,65
2018-04-24T07:47:07.468Z,60
2018-04-24T07:47:48.698Z,60
2018-04-24T07:48:29.452Z,55
2018-04-24T07:49:09.600Z,55
2018-04-24T07:49:50.619Z,50
2018-04-24T07:50:32.245Z,50
2018-04-24T07:51:12.656Z,50
2018-04-24T07:51:53.235Z,45
2018-04-24T07:52:33.622Z,45
2018-04-24T07:53:14.193Z,45
2018-04-24T07:53:55.049Z,40
2018-04-24T07:54:38.606Z,40
2018-04-24T07:55:19.240Z,40
2018-04-24T08:03:40.205Z,35
2018-04-24T08:04:20.634Z,35
2018-04-24T08:05:00.994Z,35
2018-04-24T08:05:42.816Z,35
2018-04-24T08:06:23.204Z,35
2018-04-24T08:07:03.518Z,35
2018-04-24T08:07:44.989Z,35
2018-04-24T08:08:25.531Z,35
2018-04-24T08:09:06.067Z,35
2018-04-24T08:09:46.351Z,35
2018-04-24T08:10:27.081Z,35
2018-04-24T08:11:07.752Z,35
2018-04-24T08:11:50.196Z,40
2018-04-24T08:12:30.890Z,40
2018-04-24T08:13:11.824Z,40
2018-04-24T08:13:52.321Z,40
2018-04-24T08:14:33.575Z,40
2018-04-24T08:15:14.093Z,40
2018-04-24T08:15:57.078Z,40
2018-04-24T08:16:37.759Z,40
2018-04-24T08:17:18.382Z,40
2018-04-24T08:17:58.844Z,35
2018-04-24T08:18:40.889Z,35
2018-04-24T08:19:21.437Z,35
2018-04-24T08:20:04.492Z,35
2018-04-24T08:20:50.748Z,35
2018-04-24T08:21:32.093Z,35
2018-04-24T08:22:12.204Z,35
2018-04-24T08:22:52.863Z,35
2018-04-24T08:23:33.414Z,35
2018-04-24T08:24:14.327Z,35
2018-04-24T08:24:54.790Z,35
2018-04-24T08:25:37.431Z,30
2018-04-24T08:26:17.758Z,30
2018-04-24T08:30:21.089Z,25
2018-04-24T08:35:32.428Z,20
2018-04-24T08:36:13.006Z,20
2018-04-24T08:36:53.240Z,20
2018-04-24T08:37:34.639Z,20
2018-04-24T08:38:16.851Z,20
2018-04-24T08:38:57.615Z,20
2018-04-24T08:39:37.807Z,20
2018-04-24T08:40:18.310Z,20
2018-04-24T08:40:58.670Z,20
2018-04-24T08:41:39.271Z,20
2018-04-24T08:42:22.256Z,20
2018-04-24T08:43:03.877Z,20
2018-04-24T08:43:44.581Z,20
2018-04-24T08:44:25.193Z,20
2018-04-24T08:45:05.532Z,20
2018-04-24T08:45:46.906Z,20
2018-04-24T08:46:27.188Z,20
2018-04-24T08:47:07.802Z,20
2018-04-24T08:47:48.249Z,20
2018-04-24T08:48:28.959Z,20
2018-04-24T08:49:09.551Z,20
2018-04-24T08:49:52.204Z,15
2018-04-24T08:50:33.850Z,15
2018-04-24T08:53:47.308Z,15
2018-04-24T08:56:01.050Z,20
2018-04-24T08:56:41.589Z,20
2018-04-24T08:57:22.559Z,20
2018-04-24T08:58:03.050Z,20
2018-04-24T08:58:43.518Z,20
2018-04-24T09:01:11.695Z,20
2018-04-24T09:01:52.180Z,20
2018-04-24T09:02:32.545Z,20
2018-04-24T09:03:12.971Z,20
2018-04-24T09:03:53.371Z,20
2018-04-24T09:04:48.733Z,20
2018-04-24T09:05:46.894Z,20
2018-04-24T09:08:08.773Z,20
2018-04-24T09:08:48.528Z,20
2018-04-24T09:09:29.678Z,20
2018-04-24T09:13:35.447Z,20
2018-04-24T09:14:17.359Z,20
2018-04-24T09:14:57.628Z,20
2018-04-24T09:15:38.253Z,20
2018-04-24T09:16:21.807Z,20
2018-04-24T09:17:05.290Z,20
2018-04-24T09:17:50.286Z,20
2018-04-24T09:18:31.327Z,25
2018-04-24T09:19:16.352Z,25
2018-04-24T09:19:59.185Z,25
2018-04-24T09:20:40.112Z,25
2018-04-24T09:21:21.571Z,25
2018-04-24T09:22:02.484Z,25
2018-04-24T09:22:43.317Z,25
2018-04-24T09:23:24.749Z,25
2018-04-24T09:24:05.344Z,25
2018-04-24T09:24:50.909Z,25
2018-04-24T09:25:32.954Z,30
2018-04-24T09:26:13.564Z,30
2018-04-24T09:26:57.300Z,30
2018-04-24T09:27:40.888Z,30
2018-04-24T09:28:24.078Z,30
2018-04-24T09:29:04.616Z,30
2018-04-24T09:29:45.052Z,25
2018-04-24T09:30:25.639Z,25
2018-04-24T09:33:09.045Z,25
2018-04-24T09:33:50.730Z,25
2018-04-24T09:34:32.021Z,25
2018-04-24T09:35:12.520Z,25
2018-04-24T09:35:52.924Z,25
2018-04-24T09:36:34.766Z,25
2018-04-24T09:37:17.786Z,25
2018-04-24T09:37:59.330Z,25
2018-04-24T09:38:40.118Z,25
2018-04-24T09:39:21.304Z,25
2018-04-24T09:40:02.452Z,25
2018-04-24T09:40:44.168Z,25
2018-04-24T09:41:24.659Z,25
2018-04-24T09:42:05.833Z,25
2018-04-24T09:42:46.702Z,25
2018-04-24T09:43:27.635Z,25
2018-04-24T09:44:09.100Z,20
2018-04-24T09:44:52.157Z,20
2018-04-24T09:45:32.962Z,20
2018-04-24T09:46:13.989Z,20
2018-04-24T09:46:54.577Z,25
2018-04-24T09:47:35.927Z,25
2018-04-24T09:48:15.775Z,25
2018-04-24T09:48:57.302Z,25
2018-04-24T09:49:39.220Z,25
2018-04-24T09:50:20.293Z,20
2018-04-24T09:51:01.073Z,20
2018-04-24T09:51:41.614Z,20
2018-04-24T09:52:23.199Z,20
2018-04-24T09:53:03.844Z,20
2018-04-24T09:53:45.180Z,20
2018-04-24T09:54:25.033Z,20
2018-04-24T09:55:05.644Z,20
2018-04-24T09:55:47.093Z,20
2018-04-24T09:56:27.499Z,25
2018-04-24T09:57:07.949Z,25
2018-04-24T09:57:48.405Z,25
2018-04-24T09:58:29.437Z,25
2018-04-24T09:59:10.658Z,30
2018-04-24T09:59:50.951Z,30
2018-04-24T10:00:32.142Z,35
2018-04-24T10:01:13.654Z,35
2018-04-24T10:03:21.518Z,40
2018-04-24T10:04:02.337Z,40
2018-04-24T10:43:38.981Z,30
2018-04-24T10:44:19.443Z,30
2018-04-24T10:44:59.876Z,30
2018-04-24T10:45:51.568Z,30
2018-04-24T10:46:25.721Z,30
2018-04-24T10:47:06.622Z,35
2018-04-24T10:47:47.861Z,35
2018-04-24T10:48:28.254Z,35
2018-04-24T10:49:09.667Z,35
2018-04-24T10:49:55.460Z,35
2018-04-24T10:50:45.346Z,35
2018-04-24T10:51:28.276Z,35
2018-04-24T10:52:11.116Z,40
2018-04-24T10:54:52.263Z,45
2018-04-24T10:55:32.505Z,50
2018-04-24T10:56:13.282Z,50
2018-04-24T10:56:53.695Z,50
2018-04-24T10:57:34.923Z,45
2018-04-24T10:58:16.065Z,45
2018-04-24T10:58:56.891Z,45
2018-04-24T10:59:43.415Z,50
2018-04-24T11:00:23.823Z,50
2018-04-24T11:01:04.105Z,50
2018-04-24T11:01:44.610Z,50
2018-04-24T11:02:25.206Z,50
2018-04-24T11:03:06.535Z,50
2018-04-24T11:03:46.574Z,50
2018-04-24T11:04:27.395Z,50
2018-04-24T11:05:08.336Z,45
2018-04-24T11:05:49.327Z,45
2018-04-24T11:06:33.640Z,40
2018-04-24T11:07:14.351Z,40
2018-04-24T11:07:55.513Z,40
2018-04-24T11:08:36.030Z,40
2018-04-24T11:09:18.119Z,40
2018-04-24T11:09:58.113Z,40
2018-04-24T11:10:39.407Z,45
2018-04-24T11:11:19.381Z,45
2018-04-24T11:12:00.061Z,45
2018-04-24T11:12:40.603Z,45
2018-04-24T11:13:21.661Z,45
2018-04-24T11:14:03.338Z,45
2018-04-24T11:14:44.476Z,50
2018-04-24T11:15:24.798Z,50
2018-04-24T11:16:05.571Z,50
2018-04-24T11:16:46.056Z,55
2018-04-24T11:17:26.518Z,55
2018-04-24T11:18:08.021Z,55
2018-04-24T11:18:49.856Z,60
2018-04-24T11:19:30.123Z,60
2018-04-24T11:20:12.976Z,60
2018-04-24T11:20:53.975Z,65
2018-04-24T11:21:34.439Z,65
2018-04-24T11:22:16.092Z,65
2018-04-24T11:22:55.772Z,65
2018-04-24T11:23:39.119Z,70
2018-04-24T11:24:19.925Z,70
2018-04-24T11:25:01.002Z,70
2018-04-24T11:25:42.619Z,70
2018-04-24T11:26:25.915Z,70
2018-04-24T11:27:05.940Z,70
2018-04-24T11:27:47.792Z,70
2018-04-24T11:28:30.100Z,75
2018-04-24T11:29:12.624Z,75
2018-04-24T11:29:52.510Z,75
2018-04-24T11:30:32.962Z,75
2018-04-24T11:31:16.376Z,80
2018-04-24T11:31:55.528Z,80
2018-04-24T11:32:37.957Z,75
2018-04-24T11:33:18.573Z,75
2018-04-24T11:33:59.598Z,75
2018-04-24T11:34:39.815Z,80
2018-04-24T11:35:30.671Z,80
2018-04-24T11:36:11.396Z,80
2018-04-24T11:36:52.201Z,75
2018-04-24T11:37:32.785Z,75
2018-04-24T11:38:13.959Z,75
2018-04-24T11:38:54.064Z,90
2018-04-24T11:39:34.742Z,90
2018-04-24T11:40:15.639Z,100
2018-04-24T11:40:56.079Z,105
2018-04-24T11:41:37.103Z,90
2018-04-24T11:42:17.397Z,90
2018-04-24T11:42:58.456Z,90
2018-04-24T11:43:38.997Z,90
2018-04-24T11:44:19.581Z,90
2018-04-24T11:45:00.010Z,90
2018-04-24T11:45:40.412Z,80
2018-04-24T11:46:22.463Z,80
2018-04-24T11:47:02.704Z,75
2018-04-24T11:47:43.192Z,80
2018-04-24T11:48:25.854Z,80
2018-04-24T11:49:05.850Z,80
2018-04-24T11:49:46.934Z,85
2018-04-24T11:50:28.222Z,100
2018-04-24T11:51:08.728Z,95
2018-04-24T11:51:52.211Z,90
2018-04-24T11:52:35.558Z,100
2018-04-24T11:53:20.870Z,85
2018-04-24T11:54:01.455Z,95
2018-04-24T11:54:41.815Z,90
2018-04-24T11:55:26.529Z,95
2018-04-24T11:56:08.988Z,85
2018-04-24T11:56:51.949Z,90
2018-04-24T11:57:34.400Z,85
2018-04-24T11:58:17.781Z,80
2018-04-24T11:58:58.772Z,80
2018-04-24T11:59:39.361Z,75
2018-04-24T12:00:19.748Z,75
2018-04-24T12:01:00.580Z,70
2018-04-24T12:01:41.002Z,70